Time,TemperatureF,DewpointF,PressureIn,WindDirection,WindDirectionDegrees,WindSpeedMPH,WindSpeedGustMPH,Humidity,HourlyPrecipIn,Conditions,Clouds,dailyrainin,SolarRadiationWatts/m^2,SoftwareType,DateUTC
2013-05-06 00:14:00,45.4,41.0,30.03,East,98,0.0,0.0,85,0.00,,,0.00,0,weatherlink.com 1.10,2013-05-06 05:14:00,
2013-05-06 00:29:00,45.1,41.0,30.03,East,99,0.0,0.0,85,0.00,,,0.00,0,weatherlink.com 1.10,2013-05-06 05:29:00,
2013-05-06 00:44:00,44.8,41.0,30.03,East,98,0.0,0.0,85,0.00,,,0.00,0,weatherlink.com 1.10,2013-05-06 05:44:00,
2013-05-06 00:59:00,44.4,40.0,30.03,East,99,0.0,0.0,85,0.00,,,0.00,0,weatherlink.com 1.10,2013-05-06 05:59:00,
2013-05-06 01:14:00,44.4,41.0,30.02,East,98,0.0,0.0,86,0.00,,,0.00,0,weatherlink.com 1.10,2013-05-06 06:14:00,
2013-05-06 01:29:00,44.4,41.0,30.02,East,98,0.0,0.0,86,0.00,,,0.00,0,weatherlink.com 1.10,2013-05-06 06:29:00,
2013-05-06 01:44:00,44.3,40.0,30.02,East,98,0.0,0.0,86,0.00,,,0.00,0,weatherlink.com 1.10,2013-05-06 06:44:00,
2013-05-06 02:14:00,43.5,40.0,30.01,East,98,0.0,0.0,86,0.00,,,0.00,0,weatherlink.com 1.10,2013-05-06 07:14:00,
2013-05-06 02:29:00,43.3,39.0,30.01,East,96,0.0,0.0,86,0.00,,,0.00,0,weatherlink.com 1.10,2013-05-06 07:29:00,
2013-05-06 02:44:00,43.4,40.0,30.01,East,98,0.0,0.0,86,0.00,,,0.00,0,weatherlink.com 1.10,2013-05-06 07:44:00,
2013-05-06 02:59:00,43.6,40.0,30.01,East,98,0.0,0.0,87,0.00,,,0.00,0,weatherlink.com 1.10,2013-05-06 07:59:00,
2013-05-06 03:14:00,43.5,40.0,30.01,East,98,0.0,0.0,87,0.00,,,0.00,0,weatherlink.com 1.10,2013-05-06 08:14:00,
2013-05-06 03:29:00,43.3,40.0,30.01,East,98,0.0,0.0,87,0.00,,,0.00,0,weatherlink.com 1.10,2013-05-06 08:29:00,
2013-05-06 03:44:00,43.3,40.0,30.01,East,98,0.0,0.0,87,0.00,,,0.00,0,weatherlink.com 1.10,2013-05-06 08:44:00,
2013-05-06 03:59:00,43.1,40.0,30.01,East,99,0.0,0.0,87,0.00,,,0.00,0,weatherlink.com 1.10,2013-05-06 08:59:00,
2013-05-06 04:14:00,42.9,39.0,30.02,East,98,0.0,0.0,87,0.00,,,0.00,0,weatherlink.com 1.10,2013-05-06 09:14:00,
2013-05-06 04:29:00,42.6,39.0,30.02,East,99,0.0,0.0,87,0.00,,,0.00,0,weatherlink.com 1.10,2013-05-06 09:29:00,
2013-05-06 04:45:00,42.4,39.0,30.02,East,98,0.0,0.0,87,0.00,,,0.00,0,weatherlink.com 1.10,2013-05-06 09:45:00,
2013-05-06 05:00:00,42.3,39.0,30.02,East,98,0.0,0.0,87,0.00,,,0.00,0,weatherlink.com 1.10,2013-05-06 10:00:00,
2013-05-06 05:15:00,42.4,39.0,30.02,East,98,0.0,0.0,87,0.00,,,0.00,0,weatherlink.com 1.10,2013-05-06 10:15:00,
2013-05-06 05:30:00,42.3,39.0,30.02,East,98,0.0,0.0,87,0.00,,,0.00,0,weatherlink.com 1.10,2013-05-06 10:30:00,
2013-05-06 05:45:00,42.2,39.0,30.02,East,96,0.0,0.0,87,0.00,,,0.00,0,weatherlink.com 1.10,2013-05-06 10:45:00,
2013-05-06 06:00:00,42.0,39.0,30.03,East,99,0.0,0.0,88,0.00,,,0.00,0,weatherlink.com 1.10,2013-05-06 11:00:00,
2013-05-06 06:15:00,41.8,39.0,30.03,East,98,0.0,0.0,88,0.00,,,0.00,0,weatherlink.com 1.10,2013-05-06 11:15:00,
2013-05-06 06:30:00,41.4,38.0,30.03,East,98,0.0,0.0,87,0.00,,,0.00,7,weatherlink.com 1.10,2013-05-06 11:30:00,
2013-05-06 06:45:00,41.4,38.0,30.03,East,98,0.0,0.0,88,0.00,,,0.00,12,weatherlink.com 1.10,2013-05-06 11:45:00,
2013-05-06 07:00:00,41.6,38.0,30.04,East,99,0.0,0.0,88,0.00,,,0.00,18,weatherlink.com 1.10,2013-05-06 12:00:00,
2013-05-06 07:15:00,42.1,39.0,30.04,East,99,0.0,0.0,88,0.00,,,0.00,23,weatherlink.com 1.10,2013-05-06 12:15:00,
2013-05-06 07:30:00,43.0,40.0,30.05,East,97,0.0,0.0,88,0.00,,,0.00,28,weatherlink.com 1.10,2013-05-06 12:30:00,
2013-05-06 07:45:00,44.4,41.0,30.05,East,98,0.0,0.0,89,0.00,,,0.00,35,weatherlink.com 1.10,2013-05-06 12:45:00,
2013-05-06 08:00:00,46.6,44.0,30.06,East,98,0.0,0.0,89,0.00,,,0.00,40,weatherlink.com 1.10,2013-05-06 13:00:00,
2013-05-06 08:15:00,49.2,47.0,30.06,East,93,0.0,1.0,90,0.00,,,0.00,46,weatherlink.com 1.10,2013-05-06 13:15:00,
2013-05-06 08:30:00,51.3,49.0,30.06,SW,215,0.0,4.0,90,0.00,,,0.00,51,weatherlink.com 1.10,2013-05-06 13:30:00,
2013-05-06 08:45:00,54.0,51.0,30.06,North,4,0.0,2.0,89,0.00,,,0.00,62,weatherlink.com 1.10,2013-05-06 13:45:00,
2013-05-06 09:00:00,55.9,52.0,30.07,WNW,282,0.0,2.0,86,0.00,,,0.00,58,weatherlink.com 1.10,2013-05-06 14:00:00,
2013-05-06 09:15:00,56.9,50.0,30.06,NE,49,0.0,5.0,78,0.00,,,0.00,378,weatherlink.com 1.10,2013-05-06 14:15:00,
2013-05-06 09:30:00,58.4,51.0,30.06,SW,233,0.0,8.0,75,0.00,,,0.00,613,weatherlink.com 1.10,2013-05-06 14:30:00,
2013-05-06 09:45:00,59.7,50.0,30.06,West,278,0.0,5.0,70,0.00,,,0.00,668,weatherlink.com 1.10,2013-05-06 14:45:00,
2013-05-06 10:00:00,61.1,50.0,30.05,SSW,211,1.0,3.0,68,0.00,,,0.00,708,weatherlink.com 1.10,2013-05-06 15:00:00,
2013-05-06 10:15:00,62.3,51.0,30.06,NNW,345,0.0,4.0,66,0.00,,,0.00,759,weatherlink.com 1.10,2013-05-06 15:15:00,
2013-05-06 10:31:00,62.8,50.0,30.06,North,4,0.0,5.0,64,0.00,,,0.00,805,weatherlink.com 1.10,2013-05-06 15:31:00,
2013-05-06 10:46:00,63.9,51.0,30.06,NNE,13,1.0,6.0,64,0.00,,,0.00,838,weatherlink.com 1.10,2013-05-06 15:46:00,
2013-05-06 11:01:00,65.1,52.0,30.05,West,265,1.0,8.0,63,0.00,,,0.00,874,weatherlink.com 1.10,2013-05-06 16:01:00,
2013-05-06 11:16:00,65.3,52.0,30.05,SW,235,0.0,7.0,62,0.00,,,0.00,905,weatherlink.com 1.10,2013-05-06 16:16:00,
2013-05-06 11:31:00,66.2,52.0,30.05,WNW,302,1.0,8.0,61,0.00,,,0.00,930,weatherlink.com 1.10,2013-05-06 16:31:00,
2013-05-06 11:46:00,67.1,53.0,30.04,SW,223,1.0,8.0,60,0.00,,,0.00,958,weatherlink.com 1.10,2013-05-06 16:46:00,
2013-05-06 12:01:00,68.0,54.0,30.03,SW,229,0.0,7.0,61,0.00,,,0.00,974,weatherlink.com 1.10,2013-05-06 17:01:00,
2013-05-06 12:16:00,69.4,53.0,30.03,SSE,161,0.0,8.0,56,0.00,,,0.00,984,weatherlink.com 1.10,2013-05-06 17:16:00,
2013-05-06 12:31:00,69.8,52.0,30.02,WSW,253,3.0,5.0,54,0.00,,,0.00,998,weatherlink.com 1.10,2013-05-06 17:31:00,
2013-05-06 12:46:00,70.7,53.0,30.02,NW,321,0.0,5.0,54,0.00,,,0.00,1004,weatherlink.com 1.10,2013-05-06 17:46:00,
2013-05-06 13:01:00,71.4,53.0,30.01,North,4,0.0,8.0,53,0.00,,,0.00,1018,weatherlink.com 1.10,2013-05-06 18:01:00,
2013-05-06 13:16:00,72.0,55.0,30.01,ENE,76,5.0,9.0,55,0.00,,,0.00,1023,weatherlink.com 1.10,2013-05-06 18:16:00,
2013-05-06 13:31:00,72.8,55.0,30.00,NNE,13,0.0,6.0,54,0.00,,,0.00,1007,weatherlink.com 1.10,2013-05-06 18:31:00,
2013-05-06 13:46:00,73.1,54.0,30.00,SW,214,0.0,5.0,52,0.00,,,0.00,1013,weatherlink.com 1.10,2013-05-06 18:46:00,
2013-05-06 14:01:00,73.8,54.0,30.00,NE,39,1.0,5.0,51,0.00,,,0.00,965,weatherlink.com 1.10,2013-05-06 19:01:00,
2013-05-06 14:16:00,74.1,55.0,29.99,SSW,196,1.0,8.0,51,0.00,,,0.00,995,weatherlink.com 1.10,2013-05-06 19:16:00,
2013-05-06 14:31:00,74.2,55.0,29.99,North,352,0.0,8.0,51,0.00,,,0.00,795,weatherlink.com 1.10,2013-05-06 19:31:00,
2013-05-06 14:46:00,74.6,54.0,29.98,North,359,0.0,7.0,49,0.00,,,0.00,893,weatherlink.com 1.10,2013-05-06 19:46:00,
2013-05-06 15:01:00,74.6,54.0,29.98,West,273,2.0,5.0,48,0.00,,,0.00,861,weatherlink.com 1.10,2013-05-06 20:01:00,
2013-05-06 15:16:00,74.9,55.0,29.98,ENE,73,1.0,6.0,50,0.00,,,0.00,807,weatherlink.com 1.10,2013-05-06 20:16:00,
2013-05-06 15:32:00,75.0,54.0,29.97,North,4,0.0,5.0,49,0.00,,,0.00,805,weatherlink.com 1.10,2013-05-06 20:32:00,
2013-05-06 15:47:00,75.3,54.0,29.96,WSW,246,1.0,7.0,48,0.00,,,0.00,770,weatherlink.com 1.10,2013-05-06 20:47:00,
2013-05-06 16:02:00,75.3,54.0,29.95,West,272,5.0,9.0,47,0.00,,,0.00,715,weatherlink.com 1.10,2013-05-06 21:02:00,
2013-05-06 16:17:00,75.5,54.0,29.94,North,352,0.0,4.0,48,0.00,,,0.00,677,weatherlink.com 1.10,2013-05-06 21:17:00,
2013-05-06 16:32:00,75.2,54.0,29.94,NNW,332,1.0,6.0,47,0.00,,,0.00,643,weatherlink.com 1.10,2013-05-06 21:32:00,
2013-05-06 16:47:00,75.3,54.0,29.94,SE,137,0.0,6.0,48,0.00,,,0.00,513,weatherlink.com 1.10,2013-05-06 21:47:00,
2013-05-06 17:02:00,74.9,55.0,29.94,SE,139,1.0,4.0,51,0.00,,,0.00,149,weatherlink.com 1.10,2013-05-06 22:02:00,
2013-05-06 17:17:00,74.3,55.0,29.94,West,269,0.0,5.0,51,0.00,,,0.00,424,weatherlink.com 1.10,2013-05-06 22:17:00,
2013-05-06 17:32:00,74.4,56.0,29.94,North,4,0.0,2.0,52,0.00,,,0.00,387,weatherlink.com 1.10,2013-05-06 22:32:00,
2013-05-06 17:47:00,73.9,54.0,29.94,NNE,33,0.0,7.0,50,0.00,,,0.00,116,weatherlink.com 1.10,2013-05-06 22:47:00,
2013-05-06 18:02:00,73.4,55.0,29.93,NNE,29,0.0,1.0,53,0.00,,,0.00,109,weatherlink.com 1.10,2013-05-06 23:02:00,
2013-05-06 18:17:00,73.2,55.0,29.94,North,4,0.0,4.0,54,0.00,,,0.00,83,weatherlink.com 1.10,2013-05-06 23:17:00,
2013-05-06 18:32:00,73.0,56.0,29.94,East,81,0.0,2.0,55,0.00,,,0.00,65,weatherlink.com 1.10,2013-05-06 23:32:00,
2013-05-06 18:47:00,72.4,56.0,29.95,East,82,0.0,2.0,57,0.00,,,0.00,47,weatherlink.com 1.10,2013-05-06 23:47:00,
2013-05-06 19:02:00,71.5,56.0,29.95,East,83,0.0,0.0,59,0.00,,,0.00,51,weatherlink.com 1.10,2013-05-07 00:02:00,
2013-05-06 19:17:00,70.7,56.0,29.95,East,82,0.0,0.0,61,0.00,,,0.00,46,weatherlink.com 1.10,2013-05-07 00:17:00,
2013-05-06 19:32:00,69.8,58.0,29.95,East,82,0.0,0.0,66,0.00,,,0.00,21,weatherlink.com 1.10,2013-05-07 00:32:00,
2013-05-06 19:47:00,68.0,57.0,29.96,East,82,0.0,0.0,67,0.00,,,0.00,0,weatherlink.com 1.10,2013-05-07 00:47:00,
2013-05-06 20:02:00,66.3,56.0,29.96,East,82,0.0,0.0,70,0.00,,,0.00,0,weatherlink.com 1.10,2013-05-07 01:02:00,
2013-05-06 20:17:00,65.1,56.0,29.96,East,82,0.0,0.0,72,0.00,,,0.00,0,weatherlink.com 1.10,2013-05-07 01:17:00,
2013-05-06 20:32:00,63.8,55.0,29.97,East,82,0.0,0.0,73,0.00,,,0.00,0,weatherlink.com 1.10,2013-05-07 01:32:00,
2013-05-06 20:47:00,63.0,55.0,29.97,East,82,0.0,0.0,74,0.00,,,0.00,0,weatherlink.com 1.10,2013-05-07 01:47:00,
2013-05-06 21:02:00,62.0,54.0,29.98,East,82,0.0,0.0,76,0.00,,,0.00,0,weatherlink.com 1.10,2013-05-07 02:02:00,
2013-05-06 21:17:00,61.2,54.0,29.98,East,82,0.0,0.0,78,0.00,,,0.00,0,weatherlink.com 1.10,2013-05-07 02:17:00,
2013-05-06 21:32:00,60.4,54.0,29.98,East,82,0.0,0.0,79,0.00,,,0.00,0,weatherlink.com 1.10,2013-05-07 02:32:00,
2013-05-06 21:47:00,59.5,53.0,29.99,East,82,0.0,0.0,80,0.00,,,0.00,0,weatherlink.com 1.10,2013-05-07 02:47:00,
2013-05-06 22:02:00,59.2,53.0,29.99,East,82,0.0,0.0,80,0.00,,,0.00,0,weatherlink.com 1.10,2013-05-07 03:02:00,
2013-05-06 22:17:00,58.7,53.0,29.99,East,82,0.0,0.0,81,0.00,,,0.00,0,weatherlink.com 1.10,2013-05-07 03:17:00,
2013-05-06 22:32:00,58.5,53.0,29.99,East,82,0.0,0.0,82,0.00,,,0.00,0,weatherlink.com 1.10,2013-05-07 03:32:00,
2013-05-06 22:47:00,58.3,53.0,29.99,East,82,0.0,0.0,82,0.00,,,0.00,0,weatherlink.com 1.10,2013-05-07 03:47:00,
2013-05-06 23:02:00,58.2,53.0,29.99,East,82,0.0,0.0,83,0.00,,,0.00,0,weatherlink.com 1.10,2013-05-07 04:02:00,
2013-05-06 23:17:00,58.0,53.0,29.98,East,82,0.0,0.0,83,0.00,,,0.00,0,weatherlink.com 1.10,2013-05-07 04:17:00,
2013-05-06 23:32:00,57.7,53.0,29.99,East,82,0.0,0.0,83,0.00,,,0.00,0,weatherlink.com 1.10,2013-05-07 04:32:00,
2013-05-06 23:47:00,57.2,52.0,29.99,East,82,0.0,0.0,84,0.00,,,0.00,0,weatherlink.com 1.10,2013-05-07 04:47:00,